Time;durP1;ratioP1;P1;durP2;ratioP2;P2;SDS_P1;SDS_P2;PMS_P1;PMS_P2;Temp;Humidity;BMP_temperature;BMP_pressure;BME280_temperature;BME280_humidity;BME280_pressure;Samples;Min_cycle;Max_cycle;Signal;HPM_P1;HPM_P2
2024/04/15 00:01:59;;;;;;;6.90;4.22;;;;;;;9.69;100.00;98377.25;6102586;19;20344;-79
2024/04/15 00:03:59;;;;;;;10.80;4.63;;;;;;;9.67;100.00;98376.78;6101772;19;20547;-79
2024/04/15 00:06:00;;;;;;;4.65;3.80;;;;;;;9.70;100.00;98370.53;6102291;19;20005;-80
2024/04/15 00:08:00;;;;;;;6.45;3.83;;;;;;;9.69;100.00;98369.75;6101541;19;20013;-79
2024/04/15 00:10:00;;;;;;;5.88;3.58;;;;;;;9.77;100.00;98365.91;6101276;19;20023;-79
2024/04/15 00:12:01;;;;;;;5.80;4.07;;;;;;;9.62;100.00;98355.03;6097307;19;20556;-79
2024/04/15 00:14:01;;;;;;;6.70;4.25;;;;;;;9.64;100.00;98359.00;6100750;19;20010;-79
2024/04/15 00:16:01;;;;;;;5.43;4.53;;;;;;;9.65;100.00;98359.81;6099139;19;20007;-79
2024/04/15 00:18:02;;;;;;;6.18;4.47;;;;;;;9.58;100.00;98350.25;6100955;19;19999;-79
2024/04/15 00:20:03;;;;;;;6.43;4.50;;;;;;;9.53;100.00;98344.28;6100707;19;20019;-79
2024/04/15 00:22:04;;;;;;;7.07;4.53;;;;;;;9.43;100.00;98353.19;6100834;19;20243;-79
2024/04/15 00:24:04;;;;;;;9.77;4.28;;;;;;;9.47;100.00;98348.53;6100999;19;20467;-79
2024/04/15 00:26:05;;;;;;;7.85;5.45;;;;;;;9.47;100.00;98341.03;6099295;19;20574;-79
2024/04/15 00:28:05;;;;;;;8.82;4.80;;;;;;;9.43;100.00;98333.84;6100428;19;20020;-79
2024/04/15 00:30:06;;;;;;;6.88;4.78;;;;;;;9.44;100.00;98338.22;6099977;19;20002;-79
2024/04/15 00:32:06;;;;;;;6.88;5.07;;;;;;;9.38;100.00;98339.72;6101017;19;20039;-79
2024/04/15 00:34:07;;;;;;;7.63;4.95;;;;;;;9.40;100.00;98346.44;6099149;19;20003;-78
2024/04/15 00:36:07;;;;;;;8.75;4.57;;;;;;;9.43;100.00;98344.91;6101016;19;20002;-79
2024/04/15 00:38:07;;;;;;;7.05;4.60;;;;;;;9.39;100.00;98357.88;6097346;19;20035;-79
2024/04/15 00:40:08;;;;;;;5.57;4.38;;;;;;;9.34;100.00;98356.22;6102265;19;20014;-79
2024/04/15 00:42:09;;;;;;;5.50;4.45;;;;;;;9.31;100.00;98365.25;6105897;19;20007;-79
2024/04/15 00:44:09;;;;;;;7.90;4.38;;;;;;;9.22;100.00;98370.25;6105837;19;20009;-78
2024/04/15 00:46:10;;;;;;;6.65;4.70;;;;;;;9.22;100.00;98370.25;6108279;19;20974;-78
2024/04/15 00:48:18;;;;;;;10.25;3.80;;;;;;;9.26;100.00;98357.28;6105427;19;20044;-78
2024/04/15 00:50:18;;;;;;;4.47;3.45;;;;;;;9.29;100.00;98357.34;6106973;19;20462;-79
2024/04/15 00:52:19;;;;;;;5.68;3.60;;;;;;;9.28;100.00;98358.53;6107795;19;20003;-78
2024/04/15 00:54:20;;;;;;;7.85;3.70;;;;;;;9.29;100.00;98349.06;6107685;19;20040;-78
2024/04/15 00:56:22;;;;;;;4.95;3.60;;;;;;;9.43;100.00;98337.44;6106202;19;20007;-78
2024/04/15 00:58:25;;;;;;;5.75;3.72;;;;;;;9.50;100.00;98340.28;6107560;19;20010;-78
2024/04/15 01:00:26;;;;;;;10.23;4.40;;;;;;;9.45;100.00;98353.63;6109380;19;20003;-78
2024/04/15 01:02:27;;;;;;;6.45;4.10;;;;;;;9.32;100.00;98342.00;6112112;19;20044;-78
2024/04/15 01:04:27;;;;;;;7.55;4.00;;;;;;;9.22;100.00;98329.63;6112739;19;20007;-78
2024/04/15 01:06:27;;;;;;;6.53;4.15;;;;;;;9.14;100.00;98324.38;6111572;19;20010;-77
2024/04/15 01:08:28;;;;;;;8.30;4.72;;;;;;;9.12;100.00;98333.03;6111944;19;20002;-78
2024/04/15 01:10:28;;;;;;;11.27;4.65;;;;;;;9.14;100.00;98318.88;6111509;19;20013;-77
2024/04/15 01:12:29;;;;;;;6.72;3.92;;;;;;;9.11;100.00;98301.09;6113096;19;20070;-77
2024/04/15 01:14:29;;;;;;;10.75;4.03;;;;;;;9.12;100.00;98299.91;6114035;19;20010;-77
2024/04/15 01:16:39;;;;;;;8.70;4.35;;;;;;;9.07;100.00;98308.50;6112875;19;20320;-77
2024/04/15 01:18:40;;;;;;;5.10;3.65;;;;;;;8.97;100.00;98312.72;6109819;19;20013;-77
2024/04/15 01:20:41;;;;;;;6.85;3.60;;;;;;;8.92;100.00;98307.50;6110952;19;20003;-77
2024/04/15 01:22:48;;;;;;;8.55;3.58;;;;;;;9.00;100.00;98298.16;6111223;19;20387;-77
2024/04/15 01:24:49;;;;;;;6.80;3.65;;;;;;;9.00;100.00;98292.63;6111852;19;20006;-77
2024/04/15 01:26:49;;;;;;;4.80;3.58;;;;;;;9.05;100.00;98301.78;6112972;19;20009;-77
2024/04/15 01:28:50;;;;;;;5.82;3.70;;;;;;;9.03;100.00;98318.72;6109131;19;20417;-77
2024/04/15 01:30:50;;;;;;;5.22;3.85;;;;;;;9.10;100.00;98310.53;6111033;19;20002;-78
2024/04/15 01:32:50;;;;;;;9.13;3.97;;;;;;;9.01;100.00;98318.28;6112720;19;20579;-77
2024/04/15 01:34:51;;;;;;;8.82;4.18;;;;;;;8.86;100.00;98311.75;6110134;19;20027;-77
2024/04/15 01:36:51;;;;;;;5.10;3.50;;;;;;;8.79;100.00;98302.56;6111577;19;20029;-77
2024/04/15 01:38:52;;;;;;;6.47;4.30;;;;;;;8.72;100.00;98292.22;6109406;19;20006;-77
2024/04/15 01:40:52;;;;;;;5.88;4.20;;;;;;;8.79;100.00;98288.78;6109089;19;20006;-77
2024/04/15 01:42:52;;;;;;;7.28;4.50;;;;;;;8.70;100.00;98286.28;6110691;19;20136;-78
2024/04/15 01:44:52;;;;;;;8.40;4.45;;;;;;;8.64;100.00;98273.97;6109087;19;20038;-77
2024/04/15 01:46:53;;;;;;;7.47;4.20;;;;;;;8.61;100.00;98271.97;6111653;19;20335;-77
2024/04/15 01:48:53;;;;;;;8.32;4.38;;;;;;;8.60;100.00;98262.88;6110988;19;20017;-77
2024/04/15 01:50:54;;;;;;;9.10;4.25;;;;;;;8.59;100.00;98271.50;6109518;19;20006;-77
2024/04/15 01:52:55;;;;;;;6.38;3.60;;;;;;;8.56;100.00;98264.00;6111386;19;20014;-77
2024/04/15 01:54:55;;;;;;;7.32;3.95;;;;;;;8.54;100.00;98261.59;6112128;19;20006;-77
2024/04/15 01:56:55;;;;;;;5.43;4.10;;;;;;;8.66;100.00;98263.34;6109643;19;20036;-78
2024/04/15 01:58:56;;;;;;;4.90;4.40;;;;;;;8.55;100.00;98262.41;6112141;19;20301;-78
2024/04/15 02:01:04;;;;;;;9.27;4.25;;;;;;;8.57;100.00;98260.06;6110444;19;20011;-77
2024/04/15 02:03:04;;;;;;;5.20;4.03;;;;;;;8.61;100.00;98270.00;6112089;19;20013;-78
2024/04/15 02:05:07;;;;;;;12.02;4.03;;;;;;;8.63;100.00;98261.34;6109613;19;20888;-77
2024/04/15 02:07:07;;;;;;;6.07;3.80;;;;;;;8.48;100.00;98265.03;6110289;19;20116;-77
2024/04/15 02:09:08;;;;;;;7.60;3.90;;;;;;;8.45;100.00;98263.81;6111074;19;20046;-78
2024/04/15 02:11:08;;;;;;;7.10;4.20;;;;;;;8.39;100.00;98259.78;6109537;19;20003;-77
2024/04/15 02:13:08;;;;;;;5.63;3.85;;;;;;;8.33;100.00;98250.19;6111624;19;20082;-77
2024/04/15 02:15:09;;;;;;;5.18;3.85;;;;;;;8.32;100.00;98257.66;6111960;19;20027;-78
2024/04/15 02:17:09;;;;;;;6.85;4.07;;;;;;;8.29;100.00;98260.38;6110904;19;20047;-77
2024/04/15 02:19:09;;;;;;;8.02;3.92;;;;;;;8.22;100.00;98251.97;6110662;19;20104;-78
2024/04/15 02:21:09;;;;;;;8.68;4.15;;;;;;;8.25;100.00;98256.75;6111943;19;20317;-77
2024/04/15 02:23:10;;;;;;;5.25;3.58;;;;;;;8.23;100.00;98259.09;6112118;19;20026;-77
2024/04/15 02:25:10;;;;;;;7.05;4.13;;;;;;;8.22;100.00;98251.97;6111365;19;20330;-77
2024/04/15 02:27:10;;;;;;;9.65;4.22;;;;;;;8.23;100.00;98248.06;6111911;19;20369;-77
2024/04/15 02:29:11;;;;;;;6.78;4.20;;;;;;;8.31;100.00;98247.00;6110066;19;20002;-78
2024/04/15 02:31:11;;;;;;;5.25;3.78;;;;;;;8.38;100.00;98238.91;6110074;19;20322;-77
2024/04/15 02:33:11;;;;;;;4.38;3.85;;;;;;;8.51;100.00;98234.75;6111139;19;20070;-77
2024/04/15 02:35:12;;;;;;;4.65;4.10;;;;;;;8.56;100.00;98239.97;6111720;19;20062;-77
2024/04/15 02:37:12;;;;;;;8.68;4.10;;;;;;;8.57;100.00;98230.53;6111001;19;19999;-77
2024/04/15 02:39:12;;;;;;;6.15;3.85;;;;;;;8.59;100.00;98228.19;6109137;19;20014;-78
2024/04/15 02:41:12;;;;;;;7.50;4.13;;;;;;;8.59;100.00;98230.16;6109008;19;20018;-78
2024/04/15 02:43:13;;;;;;;8.85;4.35;;;;;;;8.56;100.00;98220.66;6109429;19;20017;-77
2024/04/15 02:45:13;;;;;;;7.15;4.07;;;;;;;8.59;100.00;98230.94;6111408;19;20007;-77
2024/04/15 02:47:14;;;;;;;6.00;3.88;;;;;;;8.60;100.00;98217.94;6110685;19;20007;-78
2024/04/15 02:49:14;;;;;;;7.43;4.03;;;;;;;8.55;100.00;98215.53;6109698;19;20459;-78
2024/04/15 02:51:14;;;;;;;7.82;4.53;;;;;;;8.54;100.00;98220.25;6110642;19;20253;-78
2024/04/15 02:53:14;;;;;;;5.97;4.15;;;;;;;8.54;100.00;98208.41;6110330;19;20003;-78
2024/04/15 02:55:15;;;;;;;9.52;4.43;;;;;;;8.52;100.00;98202.47;6112158;19;20006;-78
2024/04/15 02:57:15;;;;;;;9.00;4.07;;;;;;;8.48;100.00;98209.91;6110978;19;20010;-77
2024/04/15 02:59:15;;;;;;;7.00;4.30;;;;;;;8.48;100.00;98207.13;6108853;19;20017;-78
2024/04/15 03:01:16;;;;;;;7.03;3.97;;;;;;;8.48;100.00;98196.91;6109718;19;20003;-77
2024/04/15 03:03:16;;;;;;;6.35;4.68;;;;;;;8.50;100.00;98191.81;6108238;19;20002;-77
2024/04/15 03:05:16;;;;;;;6.85;3.85;;;;;;;8.51;100.00;98201.66;6108825;19;20483;-77
2024/04/15 03:07:17;;;;;;;8.70;4.68;;;;;;;8.47;100.00;98198.06;6107742;19;20066;-77
2024/04/15 03:09:20;;;;;;;9.98;3.90;;;;;;;8.46;100.00;98195.69;6109294;19;20006;-77
2024/04/15 03:11:20;;;;;;;6.75;4.20;;;;;;;8.44;100.00;98190.56;6110355;19;20027;-77
2024/04/15 03:13:21;;;;;;;6.05;3.83;;;;;;;8.41;100.00;98194.84;6110560;19;20006;-77
2024/04/15 03:15:21;;;;;;;7.13;4.85;;;;;;;8.42;100.00;98190.09;6110621;19;20037;-77
2024/04/15 03:17:21;;;;;;;6.90;3.20;;;;;;;8.38;100.00;98186.50;6108302;19;20010;-77
2024/04/15 03:19:22;;;;;;;6.68;4.10;;;;;;;8.34;100.00;98183.66;6108048;19;20011;-77
2024/04/15 03:21:22;;;;;;;8.65;4.15;;;;;;;8.27;100.00;98182.75;6110111;19;20366;-77
2024/04/15 03:23:22;;;;;;;8.63;3.90;;;;;;;8.27;100.00;98186.31;6109367;19;20034;-77
2024/04/15 03:25:23;;;;;;;5.78;4.10;;;;;;;8.24;100.00;98183.50;6110094;19;20014;-78
2024/04/15 03:27:23;;;;;;;7.55;4.18;;;;;;;8.22;100.00;98172.84;6110064;19;20095;-77
2024/04/15 03:29:23;;;;;;;7.40;4.03;;;;;;;8.20;100.00;98180.69;6109318;19;20524;-77
2024/04/15 03:31:24;;;;;;;9.82;4.43;;;;;;;8.19;100.00;98170.81;6109623;19;20013;-77
2024/04/15 03:33:24;;;;;;;7.10;4.03;;;;;;;8.22;100.00;98180.31;6107414;19;20013;-78
2024/04/15 03:35:24;;;;;;;6.90;3.67;;;;;;;8.21;100.00;98178.75;6107097;19;20007;-78
2024/04/15 03:37:25;;;;;;;5.03;3.88;;;;;;;8.17;100.00;98173.16;6109658;19;20009;-77
2024/04/15 03:39:25;;;;;;;5.70;3.70;;;;;;;8.12;100.00;98163.25;6097493;19;20009;-78
2024/04/15 03:41:25;;;;;;;6.07;4.28;;;;;;;8.11;100.00;98160.88;6108013;19;20011;-78
2024/04/15 03:43:26;;;;;;;7.75;4.57;;;;;;;8.11;100.00;98158.13;6107711;19;20023;-78
2024/04/15 03:45:27;;;;;;;4.55;3.97;;;;;;;8.09;100.00;98143.88;6109097;19;20366;-77
2024/04/15 03:47:28;;;;;;;6.70;3.80;;;;;;;8.04;100.00;98131.25;6108902;19;20017;-77
2024/04/15 03:49:28;;;;;;;6.28;3.97;;;;;;;8.08;100.00;98131.28;6107033;19;20007;-77
2024/04/15 03:51:28;;;;;;;8.43;4.25;;;;;;;8.07;100.00;98132.44;6108841;19;20006;-77
2024/04/15 03:53:29;;;;;;;7.25;3.65;;;;;;;8.02;100.00;98122.53;6107656;19;20475;-77
2024/04/15 03:55:29;;;;;;;7.00;3.33;;;;;;;8.02;100.00;98130.78;6109286;19;20011;-77
2024/04/15 03:57:29;;;;;;;7.95;3.70;;;;;;;7.97;100.00;98128.38;6105215;19;20066;-77
2024/04/15 03:59:30;;;;;;;5.65;3.50;;;;;;;7.91;100.00;98127.06;6107594;19;20014;-77
2024/04/15 04:01:30;;;;;;;5.25;3.40;;;;;;;7.89;100.00;98118.41;6109052;19;20006;-77
2024/04/15 04:03:31;;;;;;;8.45;3.47;;;;;;;7.85;100.00;98132.09;6107072;19;20015;-77
2024/04/15 04:05:31;;;;;;;10.45;3.75;;;;;;;7.86;100.00;98124.63;6105647;19;20571;-77
2024/04/15 04:07:32;;;;;;;8.63;4.28;;;;;;;7.84;100.00;98116.72;6104758;19;20006;-77
2024/04/15 04:09:32;;;;;;;6.38;3.63;;;;;;;7.85;100.00;98132.09;6107726;19;20006;-77
2024/04/15 04:11:33;;;;;;;4.65;3.17;;;;;;;7.80;100.00;98128.88;6109102;19;20023;-77
2024/04/15 04:13:35;;;;;;;7.15;4.00;;;;;;;7.76;100.00;98120.53;6106293;19;20016;-77
2024/04/15 04:15:37;;;;;;;6.07;3.90;;;;;;;7.74;100.00;98128.38;6108605;19;20007;-77
2024/04/15 04:17:37;;;;;;;7.15;4.07;;;;;;;7.76;100.00;98122.50;6106049;19;20003;-77
2024/04/15 04:19:37;;;;;;;8.20;4.03;;;;;;;7.77;100.00;98105.59;6105274;19;20015;-77
2024/04/15 04:21:38;;;;;;;12.45;4.05;;;;;;;7.77;100.00;98124.09;6106186;19;20535;-77
2024/04/15 04:23:38;;;;;;;7.75;3.72;;;;;;;7.69;100.00;98125.13;6108410;19;20009;-77
2024/04/15 04:25:39;;;;;;;11.45;4.15;;;;;;;7.73;100.00;98110.25;6102968;19;20010;-77
2024/04/15 04:27:39;;;;;;;6.15;3.50;;;;;;;7.79;100.00;98110.75;6106754;19;19999;-77
2024/04/15 04:29:39;;;;;;;7.07;3.45;;;;;;;7.79;100.00;98108.81;6104550;19;20002;-77
2024/04/15 04:31:40;;;;;;;8.60;3.70;;;;;;;7.78;100.00;98109.97;6107552;19;19998;-77
2024/04/15 04:33:40;;;;;;;7.03;3.92;;;;;;;7.75;100.00;98112.66;6105535;19;20486;-77
2024/04/15 04:35:40;;;;;;;10.13;5.45;;;;;;;7.71;100.00;98106.31;6103626;19;20621;-77
2024/04/15 04:37:41;;;;;;;8.02;3.63;;;;;;;7.72;100.00;98100.41;6105493;19;20027;-77
2024/04/15 04:39:41;;;;;;;14.45;4.30;;;;;;;7.76;100.00;98104.00;6101441;19;20510;-77
2024/04/15 04:41:41;;;;;;;6.75;3.40;;;;;;;7.76;100.00;98098.50;6098546;19;20003;-77
2024/04/15 04:43:42;;;;;;;10.70;5.28;;;;;;;7.75;100.00;98094.16;6100674;19;20010;-77
2024/04/15 04:45:42;;;;;;;10.48;5.22;;;;;;;7.77;100.00;98091.03;6099233;19;20007;-78
2024/04/15 04:47:42;;;;;;;6.93;4.10;;;;;;;7.78;100.00;98081.63;6096348;19;20009;-77
2024/04/15 04:49:43;;;;;;;5.30;3.90;;;;;;;7.78;100.00;98070.63;6099407;19;20029;-77
2024/04/15 04:51:43;;;;;;;8.63;4.00;;;;;;;7.73;100.00;98077.22;6100553;19;20618;-77
2024/04/15 04:53:43;;;;;;;6.93;4.13;;;;;;;7.75;100.00;98094.16;6097703;19;20036;-77
2024/04/15 04:55:43;;;;;;;7.57;3.67;;;;;;;7.79;100.00;98094.25;6100945;19;20023;-77
2024/04/15 04:57:44;;;;;;;6.63;3.85;;;;;;;7.78;100.00;98098.16;6090851;19;19999;-77
2024/04/15 04:59:44;;;;;;;8.38;4.18;;;;;;;7.76;100.00;98095.75;6096885;19;19999;-77
2024/04/15 05:01:44;;;;;;;7.57;4.10;;;;;;;7.78;100.00;98093.44;6099685;19;20345;-77
2024/04/15 05:03:46;;;;;;;7.25;4.18;;;;;;;7.77;100.00;98102.06;6099527;19;20510;-77
2024/04/15 05:05:47;;;;;;;7.50;4.30;;;;;;;7.78;100.00;98100.91;6099384;19;20017;-77
2024/04/15 05:07:48;;;;;;;6.90;3.88;;;;;;;7.74;100.00;98092.56;6099501;19;20006;-77
2024/04/15 05:09:48;;;;;;;4.35;3.33;;;;;;;7.77;100.00;98088.28;6098872;19;20005;-77
2024/04/15 05:11:49;;;;;;;8.85;4.72;;;;;;;7.78;100.00;98082.44;6099411;19;20006;-77
2024/04/15 05:13:50;;;;;;;5.32;3.78;;;;;;;7.81;100.00;98084.44;6095986;19;20002;-76
2024/04/15 05:15:50;;;;;;;9.43;5.00;;;;;;;7.78;100.00;98079.69;6099294;19;20340;-77
2024/04/15 05:17:50;;;;;;;9.48;4.80;;;;;;;7.78;100.00;98089.91;6095636;19;20003;-77
2024/04/15 05:19:51;;;;;;;7.35;4.40;;;;;;;7.77;100.00;98097.34;6097974;19;20006;-77
2024/04/15 05:21:51;;;;;;;5.88;4.00;;;;;;;7.79;100.00;98092.28;6098913;19;20019;-77
2024/04/15 05:23:52;;;;;;;6.32;3.83;;;;;;;7.82;100.00;98087.97;6098623;19;20002;-77
2024/04/15 05:25:54;;;;;;;7.82;4.10;;;;;;;7.83;100.00;98084.06;6096247;19;20478;-77
2024/04/15 05:27:54;;;;;;;7.75;4.85;;;;;;;7.88;100.00;98076.28;6098052;19;20139;-77
2024/04/15 05:29:54;;;;;;;5.53;4.18;;;;;;;7.86;100.00;98078.63;6098683;19;20395;-77
2024/04/15 05:31:55;;;;;;;7.80;4.47;;;;;;;7.82;100.00;98080.50;6098060;19;20526;-77
2024/04/15 05:33:55;;;;;;;9.18;5.40;;;;;;;7.84;100.00;98082.88;6098396;19;20007;-78
2024/04/15 05:35:55;;;;;;;5.88;4.40;;;;;;;7.85;100.00;98087.22;6096968;19;20007;-78
2024/04/15 05:37:56;;;;;;;12.32;5.22;;;;;;;7.83;100.00;98084.84;6094190;19;20093;-77
2024/04/15 05:39:56;;;;;;;8.32;4.65;;;;;;;7.88;100.00;98089.25;6096747;19;20006;-77
2024/04/15 05:41:57;;;;;;;7.13;4.90;;;;;;;7.86;100.00;98083.31;6105214;19;20298;-77
2024/04/15 05:43:57;;;;;;;5.63;4.13;;;;;;;7.98;100.00;98085.88;6104450;19;20459;-77
2024/04/15 05:45:57;;;;;;;7.43;4.05;;;;;;;8.02;100.00;98081.19;6105393;19;20054;-77
2024/04/15 05:47:57;;;;;;;8.18;4.47;;;;;;;8.04;100.00;98092.66;6109489;19;20341;-78
2024/04/15 05:49:58;;;;;;;10.68;5.18;;;;;;;8.06;100.00;98092.28;6110921;19;20007;-77
2024/04/15 05:51:58;;;;;;;7.20;4.75;;;;;;;8.01;100.00;98095.34;6109390;19;20049;-77
2024/04/15 05:53:59;;;;;;;7.60;5.00;;;;;;;7.98;100.00;98085.09;6109280;19;20431;-77
2024/04/15 05:55:59;;;;;;;5.25;3.80;;;;;;;8.08;100.00;98084.44;6109508;19;20003;-77
2024/04/15 05:57:59;;;;;;;8.32;4.63;;;;;;;8.18;100.00;98075.53;6110079;19;20013;-78
2024/04/15 06:00:02;;;;;;;6.75;4.53;;;;;;;8.23;100.00;98063.41;6109338;19;20375;-77
2024/04/15 06:02:03;;;;;;;7.85;5.00;;;;;;;8.25;100.00;98066.56;6108839;19;20002;-78
2024/04/15 06:04:05;;;;;;;10.40;4.80;;;;;;;8.27;100.00;98061.47;6105457;19;20035;-78
2024/04/15 06:06:06;;;;;;;7.45;4.45;;;;;;;8.27;100.00;98065.03;6106069;19;20018;-77
2024/04/15 06:08:06;;;;;;;10.43;4.90;;;;;;;8.28;100.00;98061.13;6106852;19;20006;-77
2024/04/15 06:10:06;;;;;;;12.45;5.60;;;;;;;8.27;100.00;98056.75;6110131;19;20311;-78
2024/04/15 06:12:07;;;;;;;8.40;5.68;;;;;;;8.31;100.00;98062.34;6107655;19;20025;-78
2024/04/15 06:14:07;;;;;;;10.32;6.05;;;;;;;8.26;100.00;98052.41;6108749;19;20039;-78
2024/04/15 06:16:08;;;;;;;8.73;4.97;;;;;;;8.28;100.00;98052.84;6106477;19;20100;-78
2024/04/15 06:18:08;;;;;;;11.93;5.32;;;;;;;8.28;100.00;98055.63;6105703;19;20073;-78
2024/04/15 06:20:09;;;;;;;6.65;4.85;;;;;;;8.33;100.00;98048.97;6105585;19;20050;-78
2024/04/15 06:22:10;;;;;;;6.78;4.72;;;;;;;8.40;100.00;98051.84;6109007;19;20022;-78
2024/04/15 06:24:10;;;;;;;9.88;7.25;;;;;;;8.46;100.00;98052.34;6108938;19;20044;-77
2024/04/15 06:26:10;;;;;;;8.88;5.78;;;;;;;8.47;100.00;98048.41;6106598;19;20007;-78
2024/04/15 06:28:10;;;;;;;11.25;6.03;;;;;;;8.49;100.00;98048.81;6106956;19;20434;-78
2024/04/15 06:30:11;;;;;;;13.00;5.85;;;;;;;8.50;100.00;98055.91;6107771;19;20723;-78
2024/04/15 06:32:12;;;;;;;8.50;5.82;;;;;;;8.49;100.00;98043.31;6109430;19;20003;-78
2024/04/15 06:34:12;;;;;;;9.98;5.47;;;;;;;8.53;100.00;98041.41;6108212;19;20027;-78
2024/04/15 06:36:13;;;;;;;11.70;6.80;;;;;;;8.50;100.00;98047.63;6108260;19;20030;-78
2024/04/15 06:38:13;;;;;;;6.93;4.85;;;;;;;8.51;100.00;98040.97;6109590;19;20014;-78
2024/04/15 06:40:13;;;;;;;12.18;5.72;;;;;;;8.47;100.00;98040.91;6109793;19;20003;-78
2024/04/15 06:42:14;;;;;;;7.72;5.22;;;;;;;8.53;100.00;98039.44;6109923;19;20086;-78
2024/04/15 06:44:14;;;;;;;10.13;4.95;;;;;;;8.62;100.00;98037.19;6110194;19;20002;-78
2024/04/15 06:46:15;;;;;;;8.27;5.70;;;;;;;8.78;100.00;98020.41;6110465;19;20480;-78
2024/04/15 06:48:16;;;;;;;8.07;6.13;;;;;;;8.91;100.00;98020.94;6110202;19;19999;-78
2024/04/15 06:50:16;;;;;;;10.18;5.57;;;;;;;8.98;100.00;98015.50;6109568;19;20346;-78
2024/04/15 06:52:16;;;;;;;11.95;5.78;;;;;;;9.06;100.00;98013.59;6111175;19;20014;-78
2024/04/15 06:54:17;;;;;;;7.90;5.05;;;;;;;9.09;100.00;97999.03;6108361;19;20006;-78
2024/04/15 06:56:17;;;;;;;13.02;5.40;;;;;;;9.19;100.00;97996.41;6107168;19;20027;-78
2024/04/15 06:58:17;;;;;;;11.40;6.65;;;;;;;9.32;100.00;97996.09;6107599;19;20012;-78
2024/04/15 07:00:18;;;;;;;18.15;10.15;;;;;;;9.48;100.00;97996.63;6109326;19;20007;-78
2024/04/15 07:02:22;;;;;;;21.55;13.10;;;;;;;9.67;100.00;97985.31;6109476;19;20430;-78
2024/04/15 07:04:23;;;;;;;15.70;9.60;;;;;;;9.92;100.00;97993.00;6110709;19;20014;-78
2024/04/15 07:06:24;;;;;;;10.65;7.07;;;;;;;10.08;100.00;97991.50;6111206;19;20011;-78
2024/04/15 07:08:25;;;;;;;10.13;6.70;;;;;;;10.11;100.00;97993.53;6110878;19;20471;-78
2024/04/15 07:10:25;;;;;;;11.82;6.50;;;;;;;10.12;100.00;97986.81;6110472;19;20306;-78
2024/04/15 07:12:25;;;;;;;8.55;5.80;;;;;;;10.10;100.00;97993.91;6111525;19;20014;-78
2024/04/15 07:14:26;;;;;;;9.20;5.15;;;;;;;10.01;100.00;97980.44;6110260;19;20011;-78
2024/04/15 07:16:26;;;;;;;12.40;6.35;;;;;;;9.90;100.00;97979.56;6107301;19;20023;-78
2024/04/15 07:18:27;;;;;;;9.13;6.13;;;;;;;9.78;100.00;97971.59;6108310;19;20021;-78
2024/04/15 07:20:27;;;;;;;9.52;6.22;;;;;;;9.72;100.00;97971.16;6108869;19;20455;-78
2024/04/15 07:22:27;;;;;;;9.73;6.20;;;;;;;9.64;100.00;97968.75;6107731;19;20011;-78
2024/04/15 07:24:29;;;;;;;8.48;6.20;;;;;;;9.69;100.00;97973.91;6105865;19;20031;-78
2024/04/15 07:26:29;;;;;;;9.68;6.22;;;;;;;9.70;100.00;97970.75;6105628;19;20426;-78
2024/04/15 07:28:30;;;;;;;11.07;6.15;;;;;;;9.76;100.00;97963.72;6109320;19;20066;-78
2024/04/15 07:30:30;;;;;;;9.95;6.10;;;;;;;9.83;100.00;97960.19;6105217;19;20011;-78
2024/04/15 07:32:31;;;;;;;20.60;11.95;;;;;;;9.94;100.00;97958.28;6110029;19;20011;-78
2024/04/15 07:34:32;;;;;;;21.05;11.45;;;;;;;9.93;100.00;97959.47;6109805;19;20010;-78
2024/04/15 07:36:32;;;;;;;18.20;8.75;;;;;;;9.93;100.00;97948.41;6108153;19;20007;-78
2024/04/15 07:38:33;;;;;;;14.77;8.48;;;;;;;9.96;100.00;97939.34;6109440;19;20694;-78
2024/04/15 07:40:33;;;;;;;9.35;6.93;;;;;;;9.97;100.00;97929.06;6109728;19;20010;-78
2024/04/15 07:42:33;;;;;;;10.45;6.78;;;;;;;10.01;100.00;97930.69;6107042;19;20014;-77
2024/04/15 07:44:34;;;;;;;9.40;7.00;;;;;;;10.00;100.00;97925.53;6102891;19;20002;-77
2024/04/15 07:46:34;;;;;;;8.63;5.40;;;;;;;10.01;100.00;97929.88;6109047;19;20062;-78
2024/04/15 07:48:34;;;;;;;6.65;4.82;;;;;;;9.89;100.00;97919.97;6109041;19;20435;-78
2024/04/15 07:50:35;;;;;;;7.53;5.32;;;;;;;9.93;100.00;97923.53;6106124;19;20007;-78
2024/04/15 07:52:35;;;;;;;8.57;5.70;;;;;;;10.07;100.00;97918.06;6108898;19;20003;-78
2024/04/15 07:54:36;;;;;;;8.93;5.15;;;;;;;10.15;100.00;97913.38;6109198;19;20014;-78
2024/04/15 07:56:36;;;;;;;9.75;4.88;;;;;;;10.36;100.00;97918.22;6108323;19;20030;-77
2024/04/15 07:58:36;;;;;;;7.15;4.50;;;;;;;10.41;100.00;97912.28;6108778;19;20010;-78
2024/04/15 08:00:37;;;;;;;5.65;4.63;;;;;;;10.54;100.00;97919.06;6108852;19;20011;-78
2024/04/15 08:02:37;;;;;;;8.90;5.88;;;;;;;10.62;100.00;97922.63;6108248;19;20014;-78
2024/04/15 08:04:37;;;;;;;6.03;4.93;;;;;;;10.66;100.00;97915.91;6106909;19;20445;-78
2024/04/15 08:06:37;;;;;;;7.90;4.97;;;;;;;10.80;100.00;97912.38;6107249;19;20003;-78
2024/04/15 08:08:38;;;;;;;6.43;4.35;;;;;;;10.87;100.00;97898.56;6106780;19;20321;-78
2024/04/15 08:10:38;;;;;;;7.53;4.93;;;;;;;10.97;100.00;97895.00;6105930;19;20006;-78
2024/04/15 08:12:39;;;;;;;6.60;4.65;;;;;;;10.94;100.00;97892.25;6108267;19;20078;-78
2024/04/15 08:14:39;;;;;;;6.40;4.40;;;;;;;10.87;100.00;97895.00;6108086;19;20017;-78
2024/04/15 08:16:39;;;;;;;8.70;4.65;;;;;;;10.84;100.00;97891.06;6107826;19;20003;-78
2024/04/15 08:18:40;;;;;;;7.18;4.45;;;;;;;10.78;100.00;97883.53;6108582;19;20026;-78
2024/04/15 08:20:40;;;;;;;7.50;4.30;;;;;;;10.83;100.00;97886.69;6107558;19;20007;-78
2024/04/15 08:22:43;;;;;;;9.43;5.75;;;;;;;10.88;100.00;97882.75;6108887;19;20110;-78
2024/04/15 08:24:47;;;;;;;6.28;4.95;;;;;;;10.69;100.00;97881.94;6109160;19;20392;-79
2024/04/15 08:26:48;;;;;;;9.27;4.53;;;;;;;10.66;100.00;97882.72;6108922;19;20011;-79
2024/04/15 08:28:48;;;;;;;6.60;4.75;;;;;;;10.73;100.00;97881.16;6108435;19;20003;-78
2024/04/15 08:30:49;;;;;;;7.28;5.18;;;;;;;10.84;100.00;97877.22;6107855;19;20455;-79
2024/04/15 08:32:52;;;;;;;11.10;4.50;;;;;;;10.80;100.00;97865.34;6108289;19;20017;-79
2024/04/15 08:34:52;;;;;;;9.88;5.00;;;;;;;10.92;100.00;97859.44;6106975;19;20017;-79
2024/04/15 08:36:53;;;;;;;7.78;4.75;;;;;;;11.03;100.00;97864.97;6106451;19;20082;-78
2024/04/15 08:38:53;;;;;;;6.00;5.07;;;;;;;11.07;100.00;97849.13;6107110;19;20013;-78
2024/04/15 08:40:56;;;;;;;9.23;5.03;;;;;;;11.13;100.00;97846.75;6097460;19;20010;-79
2024/04/15 08:43:03;;;;;;;7.05;5.32;;;;;;;11.11;100.00;97836.09;6106611;19;20003;-79
2024/04/15 08:45:07;;;;;;;9.85;4.72;;;;;;;11.03;100.00;97836.50;6108352;19;20483;-79
2024/04/15 08:47:12;;;;;;;8.32;5.20;;;;;;;11.06;100.00;97839.25;6108342;19;20042;-79
2024/04/15 08:49:13;;;;;;;9.40;5.10;;;;;;;11.14;100.00;97828.97;6104259;19;20390;-79
2024/04/15 08:51:14;;;;;;;8.35;4.88;;;;;;;11.35;100.00;97834.47;6108225;19;20014;-79
2024/04/15 08:53:15;;;;;;;9.18;4.97;;;;;;;11.59;100.00;97820.97;6105527;19;20014;-78
2024/04/15 08:55:16;;;;;;;8.25;3.95;;;;;;;11.92;100.00;97819.69;6107445;19;20028;-79
2024/04/15 08:57:17;;;;;;;7.03;4.20;;;;;;;11.97;100.00;97819.25;6106512;19;20024;-79
2024/04/15 08:59:19;;;;;;;7.03;4.70;;;;;;;12.17;100.00;97805.72;6103901;19;19999;-79
2024/04/15 09:01:21;;;;;;;7.22;3.92;;;;;;;12.23;100.00;97815.94;6105769;19;20010;-78
2024/04/15 09:03:23;;;;;;;6.13;4.25;;;;;;;12.17;100.00;97805.72;6108050;19;20060;-78
2024/04/15 09:05:23;;;;;;;4.97;3.85;;;;;;;12.22;100.00;97794.16;6107096;19;20003;-78
2024/04/15 09:07:24;;;;;;;7.18;3.80;;;;;;;12.11;100.00;97799.00;6105287;19;20007;-79
2024/04/15 09:09:24;;;;;;;6.97;3.80;;;;;;;12.00;100.00;97797.06;6104194;19;20003;-79
2024/04/15 09:11:25;;;;;;;5.35;3.67;;;;;;;12.07;100.00;97797.00;6104805;19;20497;-79
2024/04/15 09:13:25;;;;;;;5.70;3.38;;;;;;;12.14;100.00;97796.19;6104977;19;20007;-79
2024/04/15 09:15:26;;;;;;;5.72;3.47;;;;;;;12.25;100.00;97787.84;6106952;19;20360;-79
2024/04/15 09:17:27;;;;;;;4.72;3.25;;;;;;;12.48;100.00;97790.81;6107057;19;20038;-79
2024/04/15 09:19:29;;;;;;;8.18;4.00;;;;;;;12.63;100.00;97794.28;6105657;19;20006;-78
2024/04/15 09:21:29;;;;;;;16.85;8.70;;;;;;;12.74;100.00;97800.53;6109813;19;20462;-79
2024/04/15 09:23:31;;;;;;;8.75;4.97;;;;;;;12.70;100.00;97797.00;6112425;19;20010;-79
2024/04/15 09:25:32;;;;;;;10.02;5.97;;;;;;;12.73;100.00;97773.97;6110598;19;20490;-79